Terminal Aerodrome Forecast
Issued by NWS

Home | Current Version | Previous Version | Text Only | Print | Product List | Glossary On
Versions: 1 2 3 4 5 6 7 8 9 10 11 12
000
FTUS41 KBTV 271729
TAFPBG
TAF
KPBG 271729Z 2718/2818 14010KT P6SM BKN060
     FM272300 VRB03KT P6SM SCT060
     FM281200 03008KT P6SM BKN080
     FM281400 08008KT P6SM SCT080=

USA.gov is the U.S. government's official web portal to all federal, state and local government web resources and services.